<?xml version="1.0" encoding="UTF-8" standalone="no" ?>
<gpx xmlns="http://www.topografix.com/GPX/1/1" xmlns:xsi="http://www.w3.org/2001/XMLSchema-instance" xsi:schemaLocation="http://www.topografix.com/GPX/1/1 http://www.topografix.com/GPX/1/1/gpx.xsd" version="1.1" creator="VisuGPX - https://www.visugpx.com">
  <metadata>
    <name>Taurignan cap d'Aoubi Sainte-Croix Gajan 19/11/2021 à 13:55</name>
  </metadata>
  <trk>
    <name><![CDATA[Randonnée du 19/11/2021 à 13:55]]></name>
    <trkseg>
      <trkpt lat="43.02944" lon="1.11419">
        <ele>443</ele>
        <time>2021-11-19T13:55:12+01:00</time>
      </trkpt>
      <trkpt lat="43.02965" lon="1.11433">
        <ele>432</ele>
        <time>2021-11-19T13:55:42+01:00</time>
      </trkpt>
      <trkpt lat="43.02986" lon="1.11445">
        <ele>427</ele>
        <time>2021-11-19T13:56:03+01:00</time>
      </trkpt>
      <trkpt lat="43.03006" lon="1.1146">
        <ele>426</ele>
        <time>2021-11-19T13:56:26+01:00</time>
      </trkpt>
      <trkpt lat="43.03026" lon="1.11473">
        <ele>424</ele>
        <time>2021-11-19T13:56:46+01:00</time>
      </trkpt>
      <trkpt lat="43.03048" lon="1.11484">
        <ele>427</ele>
        <time>2021-11-19T13:57:11+01:00</time>
      </trkpt>
      <trkpt lat="43.03071" lon="1.11488">
        <ele>431</ele>
        <time>2021-11-19T13:57:37+01:00</time>
      </trkpt>
      <trkpt lat="43.03093" lon="1.11477">
        <ele>432</ele>
        <time>2021-11-19T13:58:05+01:00</time>
      </trkpt>
      <trkpt lat="43.03114" lon="1.11465">
        <ele>435</ele>
        <time>2021-11-19T13:58:27+01:00</time>
      </trkpt>
      <trkpt lat="43.03132" lon="1.11445">
        <ele>434</ele>
        <time>2021-11-19T13:58:52+01:00</time>
      </trkpt>
      <trkpt lat="43.03148" lon="1.11422">
        <ele>439</ele>
        <time>2021-11-19T13:59:21+01:00</time>
      </trkpt>
      <trkpt lat="43.03168" lon="1.11407">
        <ele>438</ele>
        <time>2021-11-19T13:59:46+01:00</time>
      </trkpt>
      <trkpt lat="43.0319" lon="1.11396">
        <ele>441</ele>
        <time>2021-11-19T14:00:14+01:00</time>
      </trkpt>
      <trkpt lat="43.03209" lon="1.11379">
        <ele>443</ele>
        <time>2021-11-19T14:00:40+01:00</time>
      </trkpt>
      <trkpt lat="43.03222" lon="1.11353">
        <ele>448</ele>
        <time>2021-11-19T14:01:17+01:00</time>
      </trkpt>
      <trkpt lat="43.03238" lon="1.1133">
        <ele>451</ele>
        <time>2021-11-19T14:01:40+01:00</time>
      </trkpt>
      <trkpt lat="43.03258" lon="1.11314">
        <ele>453</ele>
        <time>2021-11-19T14:02:06+01:00</time>
      </trkpt>
      <trkpt lat="43.03276" lon="1.11295">
        <ele>457</ele>
        <time>2021-11-19T14:02:26+01:00</time>
      </trkpt>
      <trkpt lat="43.03291" lon="1.11271">
        <ele>456</ele>
        <time>2021-11-19T14:02:52+01:00</time>
      </trkpt>
      <trkpt lat="43.03299" lon="1.11242">
        <ele>458</ele>
        <time>2021-11-19T14:03:18+01:00</time>
      </trkpt>
      <trkpt lat="43.03314" lon="1.11217">
        <ele>462</ele>
        <time>2021-11-19T14:03:45+01:00</time>
      </trkpt>
      <trkpt lat="43.03338" lon="1.11208">
        <ele>466</ele>
        <time>2021-11-19T14:04:24+01:00</time>
      </trkpt>
      <trkpt lat="43.0336" lon="1.11215">
        <ele>471</ele>
        <time>2021-11-19T14:04:49+01:00</time>
      </trkpt>
      <trkpt lat="43.03383" lon="1.11215">
        <ele>472</ele>
        <time>2021-11-19T14:05:12+01:00</time>
      </trkpt>
      <trkpt lat="43.03403" lon="1.11231">
        <ele>470</ele>
        <time>2021-11-19T14:05:29+01:00</time>
      </trkpt>
      <trkpt lat="43.0338" lon="1.11234">
        <ele>475</ele>
        <time>2021-11-19T14:05:59+01:00</time>
      </trkpt>
      <trkpt lat="43.03357" lon="1.11238">
        <ele>479</ele>
        <time>2021-11-19T14:06:24+01:00</time>
      </trkpt>
      <trkpt lat="43.03379" lon="1.11248">
        <ele>484</ele>
        <time>2021-11-19T14:06:59+01:00</time>
      </trkpt>
      <trkpt lat="43.03399" lon="1.11265">
        <ele>481</ele>
        <time>2021-11-19T14:07:20+01:00</time>
      </trkpt>
      <trkpt lat="43.03419" lon="1.11281">
        <ele>487</ele>
        <time>2021-11-19T14:07:46+01:00</time>
      </trkpt>
      <trkpt lat="43.03424" lon="1.11312">
        <ele>491</ele>
        <time>2021-11-19T14:08:14+01:00</time>
      </trkpt>
      <trkpt lat="43.03423" lon="1.11345">
        <ele>491</ele>
        <time>2021-11-19T14:08:36+01:00</time>
      </trkpt>
      <trkpt lat="43.03446" lon="1.11342">
        <ele>489</ele>
        <time>2021-11-19T14:09:12+01:00</time>
      </trkpt>
      <trkpt lat="43.03464" lon="1.11323">
        <ele>492</ele>
        <time>2021-11-19T14:09:31+01:00</time>
      </trkpt>
      <trkpt lat="43.0348" lon="1.11301">
        <ele>500</ele>
        <time>2021-11-19T14:09:57+01:00</time>
      </trkpt>
      <trkpt lat="43.03497" lon="1.1128">
        <ele>500</ele>
        <time>2021-11-19T14:10:22+01:00</time>
      </trkpt>
      <trkpt lat="43.03518" lon="1.11268">
        <ele>506</ele>
        <time>2021-11-19T14:10:55+01:00</time>
      </trkpt>
      <trkpt lat="43.03536" lon="1.11248">
        <ele>509</ele>
        <time>2021-11-19T14:11:17+01:00</time>
      </trkpt>
      <trkpt lat="43.03541" lon="1.11218">
        <ele>511</ele>
        <time>2021-11-19T14:11:45+01:00</time>
      </trkpt>
      <trkpt lat="43.03557" lon="1.11242">
        <ele>505</ele>
        <time>2021-11-19T14:12:14+01:00</time>
      </trkpt>
      <trkpt lat="43.03565" lon="1.11271">
        <ele>511</ele>
        <time>2021-11-19T14:12:40+01:00</time>
      </trkpt>
      <trkpt lat="43.03559" lon="1.11301">
        <ele>514</ele>
        <time>2021-11-19T14:13:14+01:00</time>
      </trkpt>
      <trkpt lat="43.03547" lon="1.11329">
        <ele>516</ele>
        <time>2021-11-19T14:13:47+01:00</time>
      </trkpt>
      <trkpt lat="43.03539" lon="1.11358">
        <ele>513</ele>
        <time>2021-11-19T14:14:08+01:00</time>
      </trkpt>
      <trkpt lat="43.03533" lon="1.11388">
        <ele>514</ele>
        <time>2021-11-19T14:14:38+01:00</time>
      </trkpt>
      <trkpt lat="43.03523" lon="1.11416">
        <ele>519</ele>
        <time>2021-11-19T14:15:07+01:00</time>
      </trkpt>
      <trkpt lat="43.03517" lon="1.11446">
        <ele>520</ele>
        <time>2021-11-19T14:15:35+01:00</time>
      </trkpt>
      <trkpt lat="43.03508" lon="1.11474">
        <ele>523</ele>
        <time>2021-11-19T14:15:57+01:00</time>
      </trkpt>
      <trkpt lat="43.03505" lon="1.11505">
        <ele>522</ele>
        <time>2021-11-19T14:16:26+01:00</time>
      </trkpt>
      <trkpt lat="43.03496" lon="1.11534">
        <ele>526</ele>
        <time>2021-11-19T14:16:51+01:00</time>
      </trkpt>
      <trkpt lat="43.03487" lon="1.11563">
        <ele>535</ele>
        <time>2021-11-19T14:17:33+01:00</time>
      </trkpt>
      <trkpt lat="43.03467" lon="1.1158">
        <ele>536</ele>
        <time>2021-11-19T14:17:50+01:00</time>
      </trkpt>
      <trkpt lat="43.0345" lon="1.11603">
        <ele>530</ele>
        <time>2021-11-19T14:18:26+01:00</time>
      </trkpt>
      <trkpt lat="43.03427" lon="1.11615">
        <ele>532</ele>
        <time>2021-11-19T14:18:39+01:00</time>
      </trkpt>
      <trkpt lat="43.03424" lon="1.11647">
        <ele>533</ele>
        <time>2021-11-19T14:19:17+01:00</time>
      </trkpt>
      <trkpt lat="43.03424" lon="1.11678">
        <ele>538</ele>
        <time>2021-11-19T14:19:38+01:00</time>
      </trkpt>
      <trkpt lat="43.03418" lon="1.11708">
        <ele>539</ele>
        <time>2021-11-19T14:20:09+01:00</time>
      </trkpt>
      <trkpt lat="43.0342" lon="1.11742">
        <ele>544</ele>
        <time>2021-11-19T14:20:41+01:00</time>
      </trkpt>
      <trkpt lat="43.03409" lon="1.1177">
        <ele>540</ele>
        <time>2021-11-19T14:21:00+01:00</time>
      </trkpt>
      <trkpt lat="43.03397" lon="1.11796">
        <ele>539</ele>
        <time>2021-11-19T14:21:33+01:00</time>
      </trkpt>
      <trkpt lat="43.03378" lon="1.11816">
        <ele>538</ele>
        <time>2021-11-19T14:21:46+01:00</time>
      </trkpt>
      <trkpt lat="43.03375" lon="1.11848">
        <ele>540</ele>
        <time>2021-11-19T14:22:37+01:00</time>
      </trkpt>
      <trkpt lat="43.03364" lon="1.11876">
        <ele>543</ele>
        <time>2021-11-19T14:22:59+01:00</time>
      </trkpt>
      <trkpt lat="43.03352" lon="1.11903">
        <ele>540</ele>
        <time>2021-11-19T14:23:23+01:00</time>
      </trkpt>
      <trkpt lat="43.03334" lon="1.11923">
        <ele>535</ele>
        <time>2021-11-19T14:23:44+01:00</time>
      </trkpt>
      <trkpt lat="43.03315" lon="1.11941">
        <ele>537</ele>
        <time>2021-11-19T14:24:10+01:00</time>
      </trkpt>
      <trkpt lat="43.03292" lon="1.11941">
        <ele>537</ele>
        <time>2021-11-19T14:24:34+01:00</time>
      </trkpt>
      <trkpt lat="43.03269" lon="1.11947">
        <ele>546</ele>
        <time>2021-11-19T14:24:53+01:00</time>
      </trkpt>
      <trkpt lat="43.03257" lon="1.11972">
        <ele>540</ele>
        <time>2021-11-19T14:25:35+01:00</time>
      </trkpt>
      <trkpt lat="43.03239" lon="1.11994">
        <ele>548</ele>
        <time>2021-11-19T14:26:15+01:00</time>
      </trkpt>
      <trkpt lat="43.03222" lon="1.12015">
        <ele>549</ele>
        <time>2021-11-19T14:26:37+01:00</time>
      </trkpt>
      <trkpt lat="43.03205" lon="1.12036">
        <ele>556</ele>
        <time>2021-11-19T14:27:17+01:00</time>
      </trkpt>
      <trkpt lat="43.03196" lon="1.12066">
        <ele>558</ele>
        <time>2021-11-19T14:27:36+01:00</time>
      </trkpt>
      <trkpt lat="43.03175" lon="1.12078">
        <ele>559</ele>
        <time>2021-11-19T14:28:05+01:00</time>
      </trkpt>
      <trkpt lat="43.03159" lon="1.12102">
        <ele>563</ele>
        <time>2021-11-19T14:28:26+01:00</time>
      </trkpt>
      <trkpt lat="43.03151" lon="1.12131">
        <ele>558</ele>
        <time>2021-11-19T14:28:51+01:00</time>
      </trkpt>
      <trkpt lat="43.03147" lon="1.12162">
        <ele>560</ele>
        <time>2021-11-19T14:29:30+01:00</time>
      </trkpt>
      <trkpt lat="43.03146" lon="1.12194">
        <ele>559</ele>
        <time>2021-11-19T14:29:52+01:00</time>
      </trkpt>
      <trkpt lat="43.03146" lon="1.12242">
        <ele>558</ele>
        <time>2021-11-19T14:45:00+01:00</time>
      </trkpt>
      <trkpt lat="43.03122" lon="1.12243">
        <ele>542</ele>
        <time>2021-11-19T14:45:03+01:00</time>
      </trkpt>
      <trkpt lat="43.03127" lon="1.12274">
        <ele>543</ele>
        <time>2021-11-19T14:45:51+01:00</time>
      </trkpt>
      <trkpt lat="43.03131" lon="1.12305">
        <ele>534</ele>
        <time>2021-11-19T14:46:17+01:00</time>
      </trkpt>
      <trkpt lat="43.0315" lon="1.12324">
        <ele>529</ele>
        <time>2021-11-19T14:46:35+01:00</time>
      </trkpt>
      <trkpt lat="43.03173" lon="1.1233">
        <ele>526</ele>
        <time>2021-11-19T14:46:55+01:00</time>
      </trkpt>
      <trkpt lat="43.03196" lon="1.12332">
        <ele>522</ele>
        <time>2021-11-19T14:47:22+01:00</time>
      </trkpt>
      <trkpt lat="43.03218" lon="1.12341">
        <ele>518</ele>
        <time>2021-11-19T14:47:49+01:00</time>
      </trkpt>
      <trkpt lat="43.0324" lon="1.12349">
        <ele>514</ele>
        <time>2021-11-19T14:48:16+01:00</time>
      </trkpt>
      <trkpt lat="43.03263" lon="1.12353">
        <ele>510</ele>
        <time>2021-11-19T14:48:43+01:00</time>
      </trkpt>
      <trkpt lat="43.03286" lon="1.12356">
        <ele>512</ele>
        <time>2021-11-19T14:49:11+01:00</time>
      </trkpt>
      <trkpt lat="43.03308" lon="1.12363">
        <ele>513</ele>
        <time>2021-11-19T14:49:31+01:00</time>
      </trkpt>
      <trkpt lat="43.03328" lon="1.1238">
        <ele>511</ele>
        <time>2021-11-19T14:49:49+01:00</time>
      </trkpt>
      <trkpt lat="43.03349" lon="1.12389">
        <ele>510</ele>
        <time>2021-11-19T14:50:13+01:00</time>
      </trkpt>
      <trkpt lat="43.03369" lon="1.12405">
        <ele>508</ele>
        <time>2021-11-19T14:50:33+01:00</time>
      </trkpt>
      <trkpt lat="43.0339" lon="1.12416">
        <ele>510</ele>
        <time>2021-11-19T14:51:02+01:00</time>
      </trkpt>
      <trkpt lat="43.03399" lon="1.12445">
        <ele>509</ele>
        <time>2021-11-19T14:51:42+01:00</time>
      </trkpt>
      <trkpt lat="43.03385" lon="1.12471">
        <ele>508</ele>
        <time>2021-11-19T14:52:04+01:00</time>
      </trkpt>
      <trkpt lat="43.03373" lon="1.12497">
        <ele>510</ele>
        <time>2021-11-19T14:52:27+01:00</time>
      </trkpt>
      <trkpt lat="43.03353" lon="1.12514">
        <ele>514</ele>
        <time>2021-11-19T14:52:54+01:00</time>
      </trkpt>
      <trkpt lat="43.03331" lon="1.12524">
        <ele>508</ele>
        <time>2021-11-19T14:53:14+01:00</time>
      </trkpt>
      <trkpt lat="43.03308" lon="1.12526">
        <ele>505</ele>
        <time>2021-11-19T14:53:30+01:00</time>
      </trkpt>
      <trkpt lat="43.03285" lon="1.12533">
        <ele>503</ele>
        <time>2021-11-19T14:53:52+01:00</time>
      </trkpt>
      <trkpt lat="43.03269" lon="1.12555">
        <ele>502</ele>
        <time>2021-11-19T14:54:12+01:00</time>
      </trkpt>
      <trkpt lat="43.03258" lon="1.12583">
        <ele>501</ele>
        <time>2021-11-19T14:54:31+01:00</time>
      </trkpt>
      <trkpt lat="43.03255" lon="1.12615">
        <ele>500</ele>
        <time>2021-11-19T14:54:56+01:00</time>
      </trkpt>
      <trkpt lat="43.03245" lon="1.12644">
        <ele>500</ele>
        <time>2021-11-19T14:55:18+01:00</time>
      </trkpt>
      <trkpt lat="43.03229" lon="1.12667">
        <ele>504</ele>
        <time>2021-11-19T14:55:39+01:00</time>
      </trkpt>
      <trkpt lat="43.0321" lon="1.12684">
        <ele>508</ele>
        <time>2021-11-19T14:55:58+01:00</time>
      </trkpt>
      <trkpt lat="43.03195" lon="1.12708">
        <ele>509</ele>
        <time>2021-11-19T14:56:23+01:00</time>
      </trkpt>
      <trkpt lat="43.03181" lon="1.12732">
        <ele>508</ele>
        <time>2021-11-19T14:56:42+01:00</time>
      </trkpt>
      <trkpt lat="43.0317" lon="1.1276">
        <ele>507</ele>
        <time>2021-11-19T14:57:04+01:00</time>
      </trkpt>
      <trkpt lat="43.03164" lon="1.12789">
        <ele>503</ele>
        <time>2021-11-19T14:57:19+01:00</time>
      </trkpt>
      <trkpt lat="43.03145" lon="1.12809">
        <ele>500</ele>
        <time>2021-11-19T14:57:38+01:00</time>
      </trkpt>
      <trkpt lat="43.03126" lon="1.12825">
        <ele>500</ele>
        <time>2021-11-19T14:57:57+01:00</time>
      </trkpt>
      <trkpt lat="43.03105" lon="1.12841">
        <ele>496</ele>
        <time>2021-11-19T14:58:18+01:00</time>
      </trkpt>
      <trkpt lat="43.03086" lon="1.12858">
        <ele>498</ele>
        <time>2021-11-19T14:58:36+01:00</time>
      </trkpt>
      <trkpt lat="43.03064" lon="1.12865">
        <ele>498</ele>
        <time>2021-11-19T14:59:00+01:00</time>
      </trkpt>
      <trkpt lat="43.03042" lon="1.12861">
        <ele>498</ele>
        <time>2021-11-19T14:59:21+01:00</time>
      </trkpt>
      <trkpt lat="43.03021" lon="1.12847">
        <ele>494</ele>
        <time>2021-11-19T14:59:34+01:00</time>
      </trkpt>
      <trkpt lat="43.02999" lon="1.12843">
        <ele>486</ele>
        <time>2021-11-19T15:00:30+01:00</time>
      </trkpt>
      <trkpt lat="43.02979" lon="1.1286">
        <ele>481</ele>
        <time>2021-11-19T15:00:53+01:00</time>
      </trkpt>
      <trkpt lat="43.02958" lon="1.12873">
        <ele>482</ele>
        <time>2021-11-19T15:01:19+01:00</time>
      </trkpt>
      <trkpt lat="43.02939" lon="1.1289">
        <ele>484</ele>
        <time>2021-11-19T15:01:39+01:00</time>
      </trkpt>
      <trkpt lat="43.02916" lon="1.12892">
        <ele>482</ele>
        <time>2021-11-19T15:02:04+01:00</time>
      </trkpt>
      <trkpt lat="43.02907" lon="1.12863">
        <ele>476</ele>
        <time>2021-11-19T15:02:30+01:00</time>
      </trkpt>
      <trkpt lat="43.02899" lon="1.12833">
        <ele>469</ele>
        <time>2021-11-19T15:02:58+01:00</time>
      </trkpt>
      <trkpt lat="43.02876" lon="1.12834">
        <ele>459</ele>
        <time>2021-11-19T15:03:37+01:00</time>
      </trkpt>
      <trkpt lat="43.02854" lon="1.12836">
        <ele>460</ele>
        <time>2021-11-19T15:04:01+01:00</time>
      </trkpt>
      <trkpt lat="43.02835" lon="1.12818">
        <ele>457</ele>
        <time>2021-11-19T15:04:22+01:00</time>
      </trkpt>
      <trkpt lat="43.0282" lon="1.12795">
        <ele>460</ele>
        <time>2021-11-19T15:04:41+01:00</time>
      </trkpt>
      <trkpt lat="43.02802" lon="1.12774">
        <ele>454</ele>
        <time>2021-11-19T15:05:04+01:00</time>
      </trkpt>
      <trkpt lat="43.0278" lon="1.12765">
        <ele>457</ele>
        <time>2021-11-19T15:05:26+01:00</time>
      </trkpt>
      <trkpt lat="43.02758" lon="1.12754">
        <ele>456</ele>
        <time>2021-11-19T15:05:48+01:00</time>
      </trkpt>
      <trkpt lat="43.02736" lon="1.12744">
        <ele>453</ele>
        <time>2021-11-19T15:06:13+01:00</time>
      </trkpt>
      <trkpt lat="43.02715" lon="1.12734">
        <ele>451</ele>
        <time>2021-11-19T15:06:29+01:00</time>
      </trkpt>
      <trkpt lat="43.02694" lon="1.12719">
        <ele>445</ele>
        <time>2021-11-19T15:06:48+01:00</time>
      </trkpt>
      <trkpt lat="43.02681" lon="1.12693">
        <ele>441</ele>
        <time>2021-11-19T15:07:07+01:00</time>
      </trkpt>
      <trkpt lat="43.02662" lon="1.12677">
        <ele>439</ele>
        <time>2021-11-19T15:07:31+01:00</time>
      </trkpt>
      <trkpt lat="43.02648" lon="1.12652">
        <ele>433</ele>
        <time>2021-11-19T15:07:51+01:00</time>
      </trkpt>
      <trkpt lat="43.02655" lon="1.12623">
        <ele>428</ele>
        <time>2021-11-19T15:08:08+01:00</time>
      </trkpt>
      <trkpt lat="43.02663" lon="1.12593">
        <ele>428</ele>
        <time>2021-11-19T15:08:33+01:00</time>
      </trkpt>
      <trkpt lat="43.02674" lon="1.12565">
        <ele>426</ele>
        <time>2021-11-19T15:08:52+01:00</time>
      </trkpt>
      <trkpt lat="43.02685" lon="1.12538">
        <ele>425</ele>
        <time>2021-11-19T15:09:17+01:00</time>
      </trkpt>
      <trkpt lat="43.02689" lon="1.12507">
        <ele>429</ele>
        <time>2021-11-19T15:09:37+01:00</time>
      </trkpt>
      <trkpt lat="43.02695" lon="1.12477">
        <ele>431</ele>
        <time>2021-11-19T15:09:57+01:00</time>
      </trkpt>
      <trkpt lat="43.02703" lon="1.12448">
        <ele>430</ele>
        <time>2021-11-19T15:10:18+01:00</time>
      </trkpt>
      <trkpt lat="43.02711" lon="1.12418">
        <ele>429</ele>
        <time>2021-11-19T15:10:37+01:00</time>
      </trkpt>
      <trkpt lat="43.02719" lon="1.12389">
        <ele>428</ele>
        <time>2021-11-19T15:10:57+01:00</time>
      </trkpt>
      <trkpt lat="43.02725" lon="1.1236">
        <ele>430</ele>
        <time>2021-11-19T15:11:17+01:00</time>
      </trkpt>
      <trkpt lat="43.02732" lon="1.12329">
        <ele>426</ele>
        <time>2021-11-19T15:11:41+01:00</time>
      </trkpt>
      <trkpt lat="43.02738" lon="1.12299">
        <ele>427</ele>
        <time>2021-11-19T15:12:00+01:00</time>
      </trkpt>
      <trkpt lat="43.02744" lon="1.12269">
        <ele>430</ele>
        <time>2021-11-19T15:12:20+01:00</time>
      </trkpt>
      <trkpt lat="43.02751" lon="1.12239">
        <ele>429</ele>
        <time>2021-11-19T15:12:45+01:00</time>
      </trkpt>
      <trkpt lat="43.02759" lon="1.1221">
        <ele>426</ele>
        <time>2021-11-19T15:13:02+01:00</time>
      </trkpt>
      <trkpt lat="43.02766" lon="1.12181">
        <ele>425</ele>
        <time>2021-11-19T15:13:21+01:00</time>
      </trkpt>
      <trkpt lat="43.02774" lon="1.12151">
        <ele>424</ele>
        <time>2021-11-19T15:13:41+01:00</time>
      </trkpt>
      <trkpt lat="43.02782" lon="1.12122">
        <ele>424</ele>
        <time>2021-11-19T15:14:01+01:00</time>
      </trkpt>
      <trkpt lat="43.02789" lon="1.12092">
        <ele>426</ele>
        <time>2021-11-19T15:14:21+01:00</time>
      </trkpt>
      <trkpt lat="43.02797" lon="1.12063">
        <ele>425</ele>
        <time>2021-11-19T15:14:42+01:00</time>
      </trkpt>
      <trkpt lat="43.02803" lon="1.12033">
        <ele>425</ele>
        <time>2021-11-19T15:15:02+01:00</time>
      </trkpt>
      <trkpt lat="43.02812" lon="1.12003">
        <ele>426</ele>
        <time>2021-11-19T15:15:20+01:00</time>
      </trkpt>
      <trkpt lat="43.02821" lon="1.11974">
        <ele>426</ele>
        <time>2021-11-19T15:15:42+01:00</time>
      </trkpt>
      <trkpt lat="43.02829" lon="1.11945">
        <ele>427</ele>
        <time>2021-11-19T15:16:04+01:00</time>
      </trkpt>
      <trkpt lat="43.02834" lon="1.11915">
        <ele>422</ele>
        <time>2021-11-19T15:16:23+01:00</time>
      </trkpt>
      <trkpt lat="43.02826" lon="1.11885">
        <ele>419</ele>
        <time>2021-11-19T15:16:45+01:00</time>
      </trkpt>
      <trkpt lat="43.02812" lon="1.11861">
        <ele>419</ele>
        <time>2021-11-19T15:17:13+01:00</time>
      </trkpt>
      <trkpt lat="43.02803" lon="1.11833">
        <ele>424</ele>
        <time>2021-11-19T15:17:33+01:00</time>
      </trkpt>
      <trkpt lat="43.02784" lon="1.11814">
        <ele>424</ele>
        <time>2021-11-19T15:17:57+01:00</time>
      </trkpt>
      <trkpt lat="43.02763" lon="1.11801">
        <ele>431</ele>
        <time>2021-11-19T15:18:16+01:00</time>
      </trkpt>
      <trkpt lat="43.02768" lon="1.11771">
        <ele>435</ele>
        <time>2021-11-19T15:18:32+01:00</time>
      </trkpt>
      <trkpt lat="43.02778" lon="1.11743">
        <ele>434</ele>
        <time>2021-11-19T15:18:46+01:00</time>
      </trkpt>
      <trkpt lat="43.0279" lon="1.11716">
        <ele>431</ele>
        <time>2021-11-19T15:19:02+01:00</time>
      </trkpt>
      <trkpt lat="43.02802" lon="1.1169">
        <ele>429</ele>
        <time>2021-11-19T15:19:23+01:00</time>
      </trkpt>
      <trkpt lat="43.02815" lon="1.11663">
        <ele>427</ele>
        <time>2021-11-19T15:19:42+01:00</time>
      </trkpt>
      <trkpt lat="43.02821" lon="1.11633">
        <ele>423</ele>
        <time>2021-11-19T15:20:03+01:00</time>
      </trkpt>
      <trkpt lat="43.02807" lon="1.11608">
        <ele>421</ele>
        <time>2021-11-19T15:20:28+01:00</time>
      </trkpt>
      <trkpt lat="43.02785" lon="1.11598">
        <ele>422</ele>
        <time>2021-11-19T15:20:48+01:00</time>
      </trkpt>
      <trkpt lat="43.02767" lon="1.11578">
        <ele>426</ele>
        <time>2021-11-19T15:21:10+01:00</time>
      </trkpt>
      <trkpt lat="43.02752" lon="1.11554">
        <ele>424</ele>
        <time>2021-11-19T15:21:29+01:00</time>
      </trkpt>
      <trkpt lat="43.02755" lon="1.11523">
        <ele>422</ele>
        <time>2021-11-19T15:21:46+01:00</time>
      </trkpt>
      <trkpt lat="43.02761" lon="1.11491">
        <ele>428</ele>
        <time>2021-11-19T15:22:12+01:00</time>
      </trkpt>
      <trkpt lat="43.02765" lon="1.11461">
        <ele>428</ele>
        <time>2021-11-19T15:22:36+01:00</time>
      </trkpt>
      <trkpt lat="43.02775" lon="1.11432">
        <ele>429</ele>
        <time>2021-11-19T15:23:16+01:00</time>
      </trkpt>
      <trkpt lat="43.02795" lon="1.11417">
        <ele>424</ele>
        <time>2021-11-19T15:23:34+01:00</time>
      </trkpt>
      <trkpt lat="43.02798" lon="1.11385">
        <ele>425</ele>
        <time>2021-11-19T15:23:55+01:00</time>
      </trkpt>
      <trkpt lat="43.02784" lon="1.1136">
        <ele>435</ele>
        <time>2021-11-19T15:24:20+01:00</time>
      </trkpt>
      <trkpt lat="43.02771" lon="1.11335">
        <ele>431</ele>
        <time>2021-11-19T15:24:41+01:00</time>
      </trkpt>
      <trkpt lat="43.02748" lon="1.11324">
        <ele>425</ele>
        <time>2021-11-19T15:25:00+01:00</time>
      </trkpt>
      <trkpt lat="43.02726" lon="1.11333">
        <ele>423</ele>
        <time>2021-11-19T15:25:16+01:00</time>
      </trkpt>
      <trkpt lat="43.02704" lon="1.11341">
        <ele>418</ele>
        <time>2021-11-19T15:25:36+01:00</time>
      </trkpt>
      <trkpt lat="43.02686" lon="1.1136">
        <ele>413</ele>
        <time>2021-11-19T15:25:57+01:00</time>
      </trkpt>
    </trkseg>
  </trk>
</gpx>